Time;durP1;ratioP1;P1;durP2;ratioP2;P2;SDS_P1;SDS_P2;PMS_P1;PMS_P2;Temp;Humidity;BMP_temperature;BMP_pressure;BME280_temperature;BME280_humidity;BME280_pressure;Samples;Min_cycle;Max_cycle;Signal;HPM_P1;HPM_P2
2023/01/05 00:01:49;;;;;;;38.43;6.03;;;9.80;99.90;;;;;;5077368;28;20304;-90
2023/01/05 00:04:15;;;;;;;33.27;5.50;;;9.80;99.90;;;;;;5043022;28;20293;-90
2023/01/05 00:06:41;;;;;;;37.23;5.67;;;9.80;99.90;;;;;;5077643;28;20302;-90
2023/01/05 00:09:10;;;;;;;35.83;5.50;;;9.80;99.90;;;;;;5041965;28;20295;-89
2023/01/05 00:22:51;;;;;;;32.40;5.93;;;9.80;99.90;;;;;;5076536;28;20366;-88
2023/01/05 00:25:25;;;;;;;37.63;5.70;;;9.80;99.90;;;;;;5076163;28;20380;-89
2023/01/05 00:27:52;;;;;;;35.60;5.63;;;9.80;99.90;;;;;;5076284;28;20323;-90
2023/01/05 00:30:21;;;;;;;39.07;5.83;;;9.80;99.90;;;;;;5059053;28;20394;-90
2023/01/05 00:32:47;;;;;;;34.87;5.50;;;9.80;99.90;;;;;;5075785;28;20763;-91
2023/01/05 00:35:14;;;;;;;32.97;5.17;;;9.80;99.90;;;;;;5076677;28;20396;-91
2023/01/05 00:37:40;;;;;;;41.07;6.30;;;9.80;99.90;;;;;;5076032;28;20053;-90
2023/01/05 00:40:09;;;;;;;41.03;6.00;;;9.80;99.90;;;;;;5058290;28;20373;-90
2023/01/05 00:42:35;;;;;;;42.67;6.33;;;9.80;99.90;;;;;;5075979;28;20311;-90
2023/01/05 00:45:00;;;;;;;32.70;5.33;;;9.80;99.90;;;;;;5041616;28;20797;-90
2023/01/05 00:47:26;;;;;;;41.07;6.30;;;9.80;99.90;;;;;;5075687;28;20044;-90
2023/01/05 00:49:52;;;;;;;29.87;5.63;;;9.70;99.90;;;;;;5075833;28;20102;-89
2023/01/05 00:52:17;;;;;;;33.67;6.33;;;9.80;99.90;;;;;;5075935;28;20561;-88
2023/01/05 00:54:43;;;;;;;34.77;4.93;;;9.70;99.90;;;;;;5058610;28;20044;-87
2023/01/05 00:57:13;;;;;;;33.50;5.33;;;9.70;99.90;;;;;;5075632;28;20133;-87
2023/01/05 00:59:39;;;;;;;33.20;5.43;;;9.70;99.90;;;;;;5058676;28;20048;-88
2023/01/05 01:02:05;;;;;;;38.60;6.23;;;9.80;99.90;;;;;;5057894;28;20297;-89
2023/01/05 01:04:32;;;;;;;35.77;5.70;;;9.80;99.90;;;;;;5057786;28;20290;-89
2023/01/05 01:06:58;;;;;;;37.83;6.67;;;9.80;99.90;;;;;;5075160;28;20092;-84
2023/01/05 01:09:24;;;;;;;35.40;6.37;;;9.70;99.90;;;;;;5058488;28;20299;-89
2023/01/05 01:11:50;;;;;;;30.93;6.00;;;9.80;99.90;;;;;;5041217;28;20290;-88
2023/01/05 01:14:16;;;;;;;30.60;5.13;;;9.80;99.90;;;;;;5057493;28;20669;-88
2023/01/05 01:16:42;;;;;;;33.67;5.87;;;9.80;99.90;;;;;;5057732;28;20388;-87
2023/01/05 01:19:16;;;;;;;34.90;5.37;;;9.80;99.90;;;;;;5041042;28;20290;-88
2023/01/05 01:21:42;;;;;;;34.47;5.40;;;9.80;99.90;;;;;;5075036;28;20314;-87
2023/01/05 01:24:08;;;;;;;37.33;6.67;;;9.80;99.90;;;;;;5075006;28;20342;-87
2023/01/05 01:26:34;;;;;;;29.20;5.00;;;9.80;99.90;;;;;;5074830;28;20055;-87
2023/01/05 01:29:00;;;;;;;35.23;6.10;;;9.70;99.90;;;;;;5057207;28;20833;-84
2023/01/05 01:31:25;;;;;;;33.80;5.17;;;9.70;99.90;;;;;;5057262;28;20052;-89
2023/01/05 01:33:51;;;;;;;38.87;7.27;;;9.70;99.90;;;;;;5056574;28;20044;-89
2023/01/05 01:36:17;;;;;;;29.37;5.93;;;9.80;99.90;;;;;;5041218;28;20047;-89
2023/01/05 01:38:42;;;;;;;34.33;5.53;;;9.80;99.90;;;;;;5057007;28;20453;-89
2023/01/05 01:41:10;;;;;;;27.47;5.10;;;9.70;99.90;;;;;;5057435;28;20044;-89
2023/01/05 01:43:49;;;;;;;25.97;5.77;;;9.80;99.90;;;;;;5057085;28;20072;-89
2023/01/05 01:46:16;;;;;;;32.13;5.70;;;9.70;99.90;;;;;;5074895;28;20880;-88
2023/01/05 01:48:51;;;;;;;34.40;5.30;;;9.70;99.90;;;;;;5074609;28;20618;-88
2023/01/05 01:51:21;;;;;;;;;;;9.80;99.90;;;;;;5045821;28;20370;-86
2023/01/05 01:53:53;;;;;;;27.27;4.93;;;9.80;99.90;;;;;;5074606;28;20412;-86
2023/01/05 01:56:22;;;;;;;29.57;5.37;;;9.70;99.90;;;;;;5074507;28;20286;-87
2023/01/05 01:58:49;;;;;;;29.27;5.57;;;9.70;99.90;;;;;;5055993;28;20278;-87
2023/01/05 02:01:15;;;;;;;35.70;6.07;;;9.70;99.90;;;;;;5074352;28;20309;-87
2023/01/05 02:03:40;;;;;;;36.93;5.43;;;9.70;99.90;;;;;;5074266;28;20287;-87
2023/01/05 02:06:07;;;;;;;33.87;6.50;;;9.70;99.90;;;;;;5056251;28;20087;-86
2023/01/05 02:08:32;;;;;;;30.20;5.97;;;9.70;99.90;;;;;;5056587;28;20052;-87
2023/01/05 02:11:36;;;;;;;27.97;5.30;;;9.70;99.90;;;;;;5056366;28;20336;-87
2023/01/05 02:14:11;;;;;;;26.47;4.93;;;9.70;99.90;;;;;;5057344;28;20346;-87
2023/01/05 02:16:42;;;;;;;29.20;6.00;;;9.70;99.90;;;;;;5040156;28;20291;-88
2023/01/05 02:19:36;;;;;;;23.17;4.90;;;9.70;99.90;;;;;;5073997;28;20461;-87
2023/01/05 02:22:17;;;;;;;22.43;5.70;;;9.70;99.90;;;;;;5039689;28;20374;-88
2023/01/05 02:24:58;;;;;;;28.27;5.23;;;9.70;99.90;;;;;;5056803;28;20287;-88
2023/01/05 02:27:53;;;;;;;23.07;4.37;;;9.70;99.90;;;;;;5056008;28;20294;-89
2023/01/05 02:30:41;;;;;;;27.47;4.57;;;9.70;99.90;;;;;;4969265;28;20283;-89
2023/01/05 02:33:25;;;;;;;24.70;5.23;;;9.70;99.90;;;;;;5058032;28;20282;-88
2023/01/05 02:36:18;;;;;;;24.17;4.80;;;9.70;99.90;;;;;;5056195;28;20302;-89
2023/01/05 02:39:07;;;;;;;38.60;5.17;;;9.70;99.90;;;;;;5073651;28;20751;-89
2023/01/05 02:42:04;;;;;;;32.87;5.70;;;9.70;99.90;;;;;;5074382;28;20271;-89
2023/01/05 02:44:32;;;;;;;29.80;4.77;;;9.70;99.90;;;;;;5043519;28;20322;-87
2023/01/05 02:47:05;;;;;;;26.57;5.10;;;9.70;99.90;;;;;;5077176;28;20294;-87
2023/01/05 02:49:36;;;;;;;36.67;5.03;;;9.70;99.90;;;;;;5074923;28;20275;-88
2023/01/05 02:52:05;;;;;;;33.10;5.70;;;9.70;99.90;;;;;;5074140;28;20275;-88
2023/01/05 02:55:01;;;;;;;35.00;5.57;;;9.70;99.90;;;;;;5073503;28;20362;-88
2023/01/05 02:57:46;;;;;;;33.27;5.37;;;9.70;99.90;;;;;;5073554;28;20275;-88
2023/01/05 03:00:21;;;;;;;36.38;5.90;;;9.70;99.90;;;;;;5056237;28;20323;-87
2023/01/05 03:02:52;;;;;;;34.28;5.82;;;9.70;99.90;;;;;;5073800;28;20099;-87
2023/01/05 03:05:35;;;;;;;33.43;5.17;;;9.60;99.90;;;;;;5055819;28;20096;-88
2023/01/05 03:08:08;;;;;;;33.87;6.47;;;9.60;99.90;;;;;;5074234;28;20290;-89
2023/01/05 03:13:51;;;;;;;33.30;5.30;;;9.60;99.90;;;;;;5077564;28;20282;-89
2023/01/05 03:16:23;;;;;;;28.57;5.53;;;9.60;99.90;;;;;;5078163;28;20309;-90
2023/01/05 03:35:38;;;;;;;36.13;6.67;;;9.60;99.90;;;;;;5077385;28;20275;-91
2023/01/05 03:38:28;;;;;;;34.27;5.00;;;9.60;99.90;;;;;;5059956;28;20048;-91
2023/01/05 03:40:58;;;;;;;39.57;6.70;;;9.60;99.90;;;;;;5077384;28;20340;-91
2023/01/05 03:43:24;;;;;;;37.23;5.83;;;9.60;99.90;;;;;;5059448;28;20321;-91
2023/01/05 03:45:53;;;;;;;30.93;6.20;;;9.60;99.90;;;;;;5059446;28;20333;-90
2023/01/05 03:48:20;;;;;;;35.20;5.73;;;9.60;99.90;;;;;;5077124;28;20366;-91
2023/01/05 03:50:46;;;;;;;39.30;6.53;;;9.60;99.90;;;;;;5059704;28;20344;-91
2023/01/05 03:53:12;;;;;;;34.90;5.17;;;9.60;99.90;;;;;;5059388;28;20291;-91
2023/01/05 03:55:38;;;;;;;32.70;5.33;;;9.50;99.90;;;;;;5042676;28;20358;-90
2023/01/05 03:58:03;;;;;;;35.67;6.17;;;9.60;99.90;;;;;;5059977;28;20044;-91
2023/01/05 04:00:29;;;;;;;26.10;5.00;;;9.60;99.90;;;;;;5059514;28;20049;-91
2023/01/05 04:02:55;;;;;;;31.40;5.13;;;9.60;99.90;;;;;;5063381;28;20052;-89
2023/01/05 04:05:20;;;;;;;32.17;5.73;;;9.60;99.90;;;;;;5078951;28;20056;-88
2023/01/05 04:07:46;;;;;;;40.53;5.77;;;9.60;99.90;;;;;;5059077;28;20059;-89
2023/01/05 04:10:12;;;;;;;28.60;5.03;;;9.60;99.90;;;;;;5058787;28;20052;-89
2023/01/05 04:12:38;;;;;;;37.23;6.50;;;9.60;99.90;;;;;;5063253;28;20079;-89
2023/01/05 04:15:04;;;;;;;29.80;5.37;;;9.60;99.90;;;;;;5042120;28;20048;-90
2023/01/05 04:17:30;;;;;;;32.73;5.40;;;9.50;99.90;;;;;;5059201;28;20048;-90
2023/01/05 04:19:56;;;;;;;27.07;3.90;;;9.50;99.90;;;;;;5058802;28;20291;-89
2023/01/05 04:22:21;;;;;;;25.47;5.67;;;9.50;99.90;;;;;;5041618;28;20094;-89
2023/01/05 04:24:47;;;;;;;28.13;4.67;;;9.50;99.90;;;;;;5076357;28;20049;-90
2023/01/05 04:27:13;;;;;;;21.40;4.83;;;9.50;99.90;;;;;;5076299;28;20070;-90
2023/01/05 04:29:38;;;;;;;28.83;4.97;;;9.40;99.90;;;;;;5076221;28;20114;-89
2023/01/05 04:32:04;;;;;;;28.23;5.33;;;9.40;99.90;;;;;;5042690;28;20045;-90
2023/01/05 04:34:30;;;;;;;32.90;5.17;;;9.40;99.90;;;;;;5059259;28;20131;-89
2023/01/05 04:36:56;;;;;;;31.17;4.97;;;9.40;99.90;;;;;;5059197;28;20822;-89
2023/01/05 04:39:22;;;;;;;32.23;5.73;;;9.50;99.90;;;;;;5058423;28;20053;-85
2023/01/05 04:41:49;;;;;;;35.50;5.67;;;9.50;99.90;;;;;;5058357;28;20499;-89
2023/01/05 04:44:15;;;;;;;25.67;4.30;;;9.50;99.90;;;;;;5058560;28;20441;-89
2023/01/05 04:46:41;;;;;;;27.33;5.03;;;9.50;99.90;;;;;;5057925;28;20833;-88
2023/01/05 04:49:09;;;;;;;36.10;5.37;;;9.50;99.90;;;;;;5058135;28;20371;-89
2023/01/05 04:51:34;;;;;;;34.40;4.47;;;9.50;99.90;;;;;;5075697;28;20747;-89
2023/01/05 04:54:00;;;;;;;23.57;4.67;;;9.50;99.90;;;;;;5075774;28;20362;-90
2023/01/05 04:56:26;;;;;;;32.70;6.30;;;9.50;99.90;;;;;;5058890;28;20135;-88
2023/01/05 04:58:51;;;;;;;34.67;4.70;;;9.50;99.90;;;;;;5075628;28;20123;-88
2023/01/05 05:01:17;;;;;;;26.57;5.57;;;9.60;99.90;;;;;;5075590;28;20059;-88
2023/01/05 05:03:43;;;;;;;33.33;5.57;;;9.60;99.90;;;;;;5075587;28;20040;-88
2023/01/05 05:06:08;;;;;;;36.10;5.10;;;9.60;99.90;;;;;;5075457;28;20052;-87
2023/01/05 05:08:34;;;;;;;36.47;6.33;;;9.60;99.90;;;;;;5075387;28;20052;-88
2023/01/05 05:11:00;;;;;;;34.80;6.90;;;9.60;99.90;;;;;;5075610;28;20456;-88
2023/01/05 05:13:26;;;;;;;27.33;5.03;;;9.60;99.90;;;;;;5075439;28;20127;-84
2023/01/05 05:15:51;;;;;;;32.00;5.60;;;9.60;99.90;;;;;;5057522;28;20091;-88
2023/01/05 05:18:17;;;;;;;30.67;5.10;;;9.60;99.90;;;;;;5043470;28;20123;-88
2023/01/05 05:20:47;;;;;;;31.60;4.77;;;9.60;99.90;;;;;;5075478;28;20052;-88
2023/01/05 05:23:13;;;;;;;32.70;5.83;;;9.60;99.90;;;;;;5041667;28;20110;-89
2023/01/05 05:25:39;;;;;;;26.10;5.90;;;9.60;99.90;;;;;;5041582;28;20306;-86
2023/01/05 05:28:04;;;;;;;28.93;4.70;;;9.70;99.90;;;;;;5057697;28;20472;-87
2023/01/05 05:30:30;;;;;;;32.07;5.50;;;9.70;99.90;;;;;;5075003;28;20431;-86
2023/01/05 05:32:56;;;;;;;28.83;6.03;;;9.60;99.90;;;;;;5073768;28;20102;-87
2023/01/05 05:35:22;;;;;;;38.47;6.13;;;9.70;99.90;;;;;;5040346;28;20094;-87
2023/01/05 05:37:47;;;;;;;28.63;5.27;;;9.70;99.90;;;;;;5074801;28;20123;-88
2023/01/05 05:40:13;;;;;;;34.13;5.90;;;9.70;99.90;;;;;;5074736;28;20438;-87
2023/01/05 05:42:39;;;;;;;31.57;4.87;;;9.70;99.90;;;;;;5074720;28;20056;-87
2023/01/05 05:45:05;;;;;;;29.33;5.13;;;9.70;99.90;;;;;;5056706;28;20048;-87
2023/01/05 05:47:31;;;;;;;32.87;6.10;;;9.70;99.90;;;;;;5057370;28;20131;-86
2023/01/05 05:49:56;;;;;;;31.17;5.03;;;9.70;99.90;;;;;;5040657;28;20319;-87
2023/01/05 05:52:22;;;;;;;30.47;4.87;;;9.70;99.90;;;;;;5074469;28;20062;-88
2023/01/05 05:54:48;;;;;;;26.70;5.70;;;9.70;99.90;;;;;;5056706;28;20044;-86
2023/01/05 05:57:14;;;;;;;29.80;5.93;;;9.70;99.90;;;;;;5074374;28;20048;-86
2023/01/05 05:59:40;;;;;;;30.30;5.73;;;9.70;99.90;;;;;;5056664;28;20083;-86
2023/01/05 06:02:05;;;;;;;32.43;4.80;;;9.70;99.90;;;;;;5074605;28;20341;-87
2023/01/05 06:04:31;;;;;;;37.20;6.23;;;9.60;99.90;;;;;;5074200;28;20052;-84
2023/01/05 06:06:57;;;;;;;27.77;5.10;;;9.70;99.90;;;;;;5073969;28;20059;-88
2023/01/05 06:09:23;;;;;;;36.87;5.80;;;9.70;99.90;;;;;;5056532;28;20048;-87
2023/01/05 06:11:49;;;;;;;31.43;5.30;;;9.70;99.90;;;;;;5056651;28;20089;-87
2023/01/05 06:14:15;;;;;;;27.67;5.57;;;9.70;99.90;;;;;;5074116;28;20593;-88
2023/01/05 06:16:41;;;;;;;32.03;4.97;;;9.70;99.90;;;;;;5061804;28;20037;-87
2023/01/05 06:19:08;;;;;;;25.33;4.57;;;9.70;99.90;;;;;;5056180;28;20041;-87
2023/01/05 06:21:34;;;;;;;31.70;6.53;;;9.70;99.90;;;;;;5056213;28;20055;-85
2023/01/05 06:24:00;;;;;;;28.73;5.50;;;9.70;99.90;;;;;;5056750;28;20283;-87
2023/01/05 06:26:26;;;;;;;37.37;5.33;;;9.70;99.90;;;;;;5056495;28;20044;-88
2023/01/05 06:28:51;;;;;;;30.80;5.80;;;9.70;99.90;;;;;;5074325;28;20050;-87
2023/01/05 06:31:17;;;;;;;29.27;5.57;;;9.70;99.90;;;;;;5073969;28;20080;-88
2023/01/05 06:33:42;;;;;;;27.20;5.53;;;9.70;99.90;;;;;;5056108;28;20048;-87
2023/01/05 06:36:08;;;;;;;33.87;6.43;;;9.70;99.90;;;;;;5056170;28;20503;-87
2023/01/05 06:38:34;;;;;;;28.67;5.27;;;9.70;99.90;;;;;;5056092;28;20080;-88
2023/01/05 06:41:00;;;;;;;32.37;5.20;;;9.70;99.90;;;;;;5073648;28;20047;-88
2023/01/05 06:43:25;;;;;;;31.23;4.63;;;9.60;99.90;;;;;;5055988;28;20124;-87
2023/01/05 06:45:51;;;;;;;32.57;4.83;;;9.70;99.90;;;;;;5073354;28;20037;-87
2023/01/05 06:48:17;;;;;;;26.30;4.53;;;9.70;99.90;;;;;;5073341;28;20045;-87
2023/01/05 06:50:43;;;;;;;28.33;4.10;;;9.70;99.90;;;;;;5055783;28;20048;-88
2023/01/05 06:53:09;;;;;;;28.77;4.77;;;9.70;99.90;;;;;;5039212;28;20443;-88
2023/01/05 06:55:34;;;;;;;28.63;5.00;;;9.70;99.90;;;;;;5074362;28;20080;-87
2023/01/05 06:58:00;;;;;;;30.50;5.37;;;9.60;99.90;;;;;;5055858;28;20052;-88
2023/01/05 07:00:26;;;;;;;31.63;5.93;;;9.70;99.90;;;;;;5055922;28;20041;-88
2023/01/05 07:02:52;;;;;;;27.83;5.20;;;9.70;99.90;;;;;;5055846;28;20053;-89
2023/01/05 07:05:17;;;;;;;32.80;5.03;;;9.70;99.90;;;;;;5073376;28;20485;-87
2023/01/05 07:07:43;;;;;;;22.93;5.13;;;9.70;99.90;;;;;;5073565;28;20044;-86
2023/01/05 07:10:09;;;;;;;27.97;5.30;;;9.70;99.90;;;;;;5055712;28;20055;-88
2023/01/05 07:12:35;;;;;;;32.43;3.83;;;9.70;99.90;;;;;;5055752;28;20101;-88
2023/01/05 07:15:01;;;;;;;29.43;5.43;;;9.60;99.90;;;;;;5055439;28;20055;-87
2023/01/05 07:17:27;;;;;;;34.17;6.40;;;9.60;99.90;;;;;;5073433;28;20098;-87
2023/01/05 07:19:52;;;;;;;28.90;5.47;;;9.60;99.90;;;;;;5073275;28;20127;-88
2023/01/05 07:22:18;;;;;;;28.47;4.70;;;9.60;99.90;;;;;;5056427;28;20084;-87
2023/01/05 07:24:44;;;;;;;27.17;4.90;;;9.60;99.90;;;;;;5055537;28;20043;-86
2023/01/05 07:27:09;;;;;;;27.57;4.73;;;9.60;99.90;;;;;;5073533;28;20076;-86
2023/01/05 07:29:35;;;;;;;26.07;6.60;;;9.50;99.90;;;;;;5055625;28;20044;-88
2023/01/05 07:32:01;;;;;;;33.63;5.60;;;9.50;99.90;;;;;;5074855;28;20045;-89
2023/01/05 07:34:27;;;;;;;29.63;4.27;;;9.50;99.90;;;;;;5073388;28;20094;-88
2023/01/05 07:36:52;;;;;;;26.70;5.73;;;9.50;99.90;;;;;;5055969;28;20171;-88
2023/01/05 07:39:18;;;;;;;30.53;4.37;;;9.40;99.90;;;;;;5055223;28;20080;-88
2023/01/05 07:41:44;;;;;;;26.77;4.13;;;9.40;99.90;;;;;;5055701;28;20056;-87
2023/01/05 07:44:10;;;;;;;24.93;3.90;;;9.40;99.90;;;;;;5073274;28;20044;-89
2023/01/05 07:46:36;;;;;;;30.37;5.00;;;9.50;99.90;;;;;;5054785;28;20045;-89
2023/01/05 07:49:03;;;;;;;30.77;4.97;;;9.40;99.90;;;;;;5055746;28;20344;-89
2023/01/05 07:51:29;;;;;;;25.83;4.73;;;9.40;99.90;;;;;;5073103;28;20088;-89
2023/01/05 07:53:55;;;;;;;29.43;5.00;;;9.50;99.90;;;;;;5059460;28;20285;-89
2023/01/05 07:56:21;;;;;;;26.10;4.50;;;9.40;99.90;;;;;;5076477;28;20279;-89
2023/01/05 07:58:47;;;;;;;28.53;4.63;;;9.40;99.90;;;;;;5061142;28;20283;-88
2023/01/05 08:01:14;;;;;;;24.67;4.03;;;9.40;99.90;;;;;;5059148;28;20096;-89
2023/01/05 08:03:40;;;;;;;24.07;4.27;;;9.50;99.90;;;;;;5059428;28;20436;-88
2023/01/05 08:06:08;;;;;;;26.87;5.27;;;9.50;99.90;;;;;;5076373;28;20385;-88
2023/01/05 08:08:35;;;;;;;18.40;3.77;;;9.50;99.90;;;;;;5076533;28;20437;-89
2023/01/05 08:11:03;;;;;;;24.70;4.73;;;9.50;99.90;;;;;;5058794;28;20810;-88
2023/01/05 08:16:13;;;;;;;23.97;4.70;;;9.50;99.90;;;;;;5061485;28;20283;-88
2023/01/05 08:18:38;;;;;;;26.60;5.33;;;9.50;99.90;;;;;;5076355;28;20279;-87
2023/01/05 08:21:07;;;;;;;33.60;5.90;;;9.50;99.90;;;;;;5058359;28;20048;-87
2023/01/05 08:23:33;;;;;;;30.90;4.20;;;9.50;99.90;;;;;;5058998;28;20044;-88
2023/01/05 08:26:26;;;;;;;31.80;4.83;;;9.50;99.90;;;;;;5076424;28;20377;-86
2023/01/05 08:28:52;;;;;;;26.00;4.50;;;9.50;99.90;;;;;;5081536;28;20375;-87
2023/01/05 08:31:26;;;;;;;26.17;5.20;;;9.60;99.90;;;;;;5058497;28;20374;-89
2023/01/05 08:33:58;;;;;;;26.02;4.45;;;9.50;99.90;;;;;;5058213;28;20047;-86
2023/01/05 08:36:25;;;;;;;33.97;5.17;;;9.60;99.90;;;;;;5076352;28;20366;-87
2023/01/05 08:38:52;;;;;;;25.47;5.13;;;9.60;99.90;;;;;;5042820;28;20373;-88
2023/01/05 08:41:19;;;;;;;26.57;4.67;;;9.60;99.90;;;;;;5058767;28;20364;-84
2023/01/05 08:43:52;;;;;;;31.90;5.20;;;9.60;99.90;;;;;;5076088;28;20285;-90
2023/01/05 08:46:19;;;;;;;27.80;3.97;;;9.60;99.90;;;;;;5075786;28;20389;-87
2023/01/05 08:48:53;;;;;;;29.50;4.60;;;9.60;99.90;;;;;;5076547;28;20615;-87
2023/01/05 08:51:19;;;;;;;25.90;4.63;;;9.60;99.90;;;;;;5076529;28;20604;-88
2023/01/05 08:53:46;;;;;;;33.83;5.53;;;9.60;99.90;;;;;;5075728;28;20281;-87
2023/01/05 08:56:12;;;;;;;25.77;5.33;;;9.60;99.90;;;;;;5076228;28;20325;-84
2023/01/05 08:58:39;;;;;;;34.50;6.00;;;9.60;99.90;;;;;;5041353;28;20290;-84
2023/01/05 09:01:10;;;;;;;36.87;7.13;;;9.60;99.90;;;;;;5042055;28;20291;-83
2023/01/05 09:03:36;;;;;;;34.40;5.87;;;9.60;99.90;;;;;;5075515;28;20627;-84
2023/01/05 09:06:03;;;;;;;26.57;5.87;;;9.60;99.90;;;;;;5057347;28;20310;-84
2023/01/05 09:08:30;;;;;;;24.97;5.33;;;9.60;99.90;;;;;;5075154;28;20328;-85
2023/01/05 09:11:05;;;;;;;27.37;5.33;;;9.70;99.90;;;;;;5075270;28;20286;-83
2023/01/05 09:13:30;;;;;;;28.10;5.35;;;9.70;99.90;;;;;;5075495;28;20274;-83
2023/01/05 09:15:56;;;;;;;31.03;4.37;;;9.70;99.90;;;;;;5076023;28;20373;-83
2023/01/05 09:18:22;;;;;;;27.70;4.63;;;9.70;99.90;;;;;;5075210;28;20048;-83
2023/01/05 09:20:54;;;;;;;24.33;4.33;;;9.70;99.90;;;;;;5074839;28;20060;-84
2023/01/05 09:23:20;;;;;;;26.47;4.43;;;9.70;99.90;;;;;;5075887;28;20066;-84
2023/01/05 09:25:46;;;;;;;27.60;4.47;;;9.70;99.90;;;;;;5058181;28;20299;-85
2023/01/05 09:28:11;;;;;;;26.10;4.77;;;9.80;99.90;;;;;;5057141;28;20506;-85
2023/01/05 09:30:37;;;;;;;23.97;4.37;;;9.80;99.90;;;;;;5075849;28;20052;-79
2023/01/05 09:33:03;;;;;;;26.03;5.23;;;9.80;99.90;;;;;;5074921;28;20102;-85
2023/01/05 09:35:28;;;;;;;31.67;5.27;;;9.80;99.90;;;;;;5057272;28;20076;-85
2023/01/05 09:37:54;;;;;;;35.13;5.53;;;9.80;99.90;;;;;;5075150;28;20532;-83
2023/01/05 09:40:20;;;;;;;31.43;4.73;;;9.80;99.90;;;;;;5074654;28;20044;-83
2023/01/05 09:42:46;;;;;;;52.17;5.83;;;9.80;99.90;;;;;;5057357;28;20131;-84
2023/01/05 09:45:20;;;;;;;30.57;5.30;;;9.90;99.90;;;;;;5057040;28;20063;-84
2023/01/05 09:47:46;;;;;;;27.53;4.93;;;9.90;99.90;;;;;;5074623;28;20283;-84
2023/01/05 09:50:24;;;;;;;27.17;4.20;;;9.90;99.90;;;;;;5074422;28;20287;-84
2023/01/05 09:52:54;;;;;;;26.77;4.13;;;9.90;99.90;;;;;;5075574;28;20274;-88
2023/01/05 09:55:22;;;;;;;22.23;4.13;;;9.90;99.90;;;;;;5074393;28;20374;-87
2023/01/05 09:57:55;;;;;;;32.00;4.60;;;9.90;99.90;;;;;;5074421;28;20294;-92
2023/01/05 10:00:22;;;;;;;27.97;4.47;;;9.90;99.90;;;;;;5074927;28;20291;-89
2023/01/05 10:02:57;;;;;;;28.43;4.23;;;10.00;99.90;;;;;;5056422;28;20794;-88
2023/01/05 10:05:26;;;;;;;27.08;5.85;;;10.00;99.90;;;;;;5074829;28;20595;-88
2023/01/05 10:08:10;;;;;;;23.43;4.43;;;10.00;99.90;;;;;;5057036;28;20044;-92
2023/01/05 10:14:00;;;;;;;27.90;4.90;;;10.10;99.90;;;;;;5074566;28;20642;-91
2023/01/05 10:16:27;;;;;;;27.97;6.40;;;10.10;99.90;;;;;;5074322;28;20271;-88
2023/01/05 10:18:53;;;;;;;22.83;5.73;;;10.10;99.90;;;;;;5074040;28;20271;-88
2023/01/05 10:21:29;;;;;;;25.57;7.00;;;10.10;99.90;;;;;;5056259;28;20337;-88
2023/01/05 10:24:01;;;;;;;28.60;4.83;;;10.10;99.90;;;;;;5073859;28;20283;-82
2023/01/05 10:26:50;;;;;;;25.13;4.93;;;10.10;99.90;;;;;;5073695;28;20290;-85
2023/01/05 10:29:23;;;;;;;23.97;4.60;;;10.10;99.90;;;;;;5073745;28;20317;-81
2023/01/05 10:32:10;;;;;;;24.23;4.30;;;10.20;99.90;;;;;;5073772;28;20279;-82
2023/01/05 10:34:55;;;;;;;24.37;4.07;;;10.10;99.90;;;;;;5073744;28;20314;-82
2023/01/05 10:37:33;;;;;;;26.98;4.25;;;10.20;99.90;;;;;;5074238;28;20354;-84
2023/01/05 10:40:04;;;;;;;23.83;5.00;;;10.20;99.90;;;;;;5074513;28;20048;-84
2023/01/05 10:42:39;;;;;;;23.67;5.20;;;10.20;99.90;;;;;;5075066;28;20290;-84
2023/01/05 10:45:16;;;;;;;23.05;4.55;;;10.30;99.90;;;;;;5073679;28;20374;-85
2023/01/05 10:47:44;;;;;;;32.57;9.50;;;10.30;99.90;;;;;;5056590;28;20036;-84
2023/01/05 10:50:32;;;;;;;26.30;6.30;;;10.30;99.90;;;;;;5073434;28;20290;-85
2023/01/05 10:52:59;;;;;;;28.60;5.60;;;10.30;99.90;;;;;;5074258;28;20500;-83
2023/01/05 10:55:27;;;;;;;21.77;4.73;;;10.30;99.90;;;;;;5039052;28;20365;-86
2023/01/05 10:57:53;;;;;;;23.40;5.33;;;10.30;99.90;;;;;;5040017;28;20278;-87
2023/01/05 11:00:21;;;;;;;27.10;5.47;;;10.30;99.90;;;;;;5073428;28;20823;-92
2023/01/05 11:03:01;;;;;;;21.73;4.43;;;10.30;99.90;;;;;;5056123;28;20045;-89
2023/01/05 11:05:40;;;;;;;27.97;5.17;;;10.30;99.90;;;;;;5073145;28;20353;-83
2023/01/05 11:08:28;;;;;;;22.90;5.03;;;10.30;99.90;;;;;;5073055;28;20837;-92
2023/01/05 11:10:59;;;;;;;22.80;4.20;;;10.30;99.90;;;;;;5074001;28;20277;-85
2023/01/05 11:13:30;;;;;;;30.57;4.70;;;10.40;99.90;;;;;;5073361;28;20281;-90
2023/01/05 11:16:09;;;;;;;27.40;4.23;;;10.40;99.90;;;;;;5055597;28;20291;-86
2023/01/05 11:18:45;;;;;;;19.83;4.13;;;10.30;99.90;;;;;;5056493;28;20321;-85
2023/01/05 11:21:17;;;;;;;24.23;5.30;;;10.40;99.90;;;;;;5055917;28;20287;-83
2023/01/05 11:23:50;;;;;;;22.70;4.40;;;10.40;99.90;;;;;;5073364;28;20290;-83
2023/01/05 11:26:29;;;;;;;25.73;5.03;;;10.50;99.90;;;;;;5073238;28;20298;-84
2023/01/05 11:29:07;;;;;;;25.63;4.47;;;10.50;99.90;;;;;;5038737;28;20291;-82
2023/01/05 11:31:53;;;;;;;25.60;4.50;;;10.50;99.90;;;;;;5074316;28;20293;-87
2023/01/05 11:34:25;;;;;;;23.73;4.67;;;10.50;99.90;;;;;;5077457;28;20295;-85
2023/01/05 11:37:00;;;;;;;37.43;6.00;;;10.50;99.90;;;;;;5060056;28;20287;-83
2023/01/05 11:39:37;;;;;;;22.88;4.57;;;10.50;99.90;;;;;;5077038;28;20766;-89
2023/01/05 11:42:09;;;;;;;29.37;5.87;;;10.50;99.90;;;;;;5059444;28;20468;-86
2023/01/05 11:44:35;;;;;;;23.13;4.57;;;10.50;99.90;;;;;;5059330;28;20291;-86
2023/01/05 11:47:02;;;;;;;27.50;4.17;;;10.50;99.90;;;;;;5059189;28;20303;-87
2023/01/05 11:49:28;;;;;;;24.63;4.57;;;10.50;99.90;;;;;;5043019;28;20691;-88
2023/01/05 11:51:54;;;;;;;19.50;4.57;;;10.50;99.90;;;;;;5059166;28;20349;-87
2023/01/05 11:54:39;;;;;;;27.27;4.33;;;10.50;99.90;;;;;;5078505;28;20104;-87
2023/01/05 11:57:10;;;;;;;28.90;4.70;;;10.60;99.90;;;;;;5059282;28;20048;-85
2023/01/05 11:59:36;;;;;;;25.87;4.40;;;10.60;99.90;;;;;;5076419;28;20106;-86
2023/01/05 12:02:14;;;;;;;27.23;4.80;;;10.60;99.90;;;;;;5058746;28;20279;-84
2023/01/05 12:05:01;;;;;;;28.53;5.73;;;10.60;99.90;;;;;;5076579;28;20279;-86
2023/01/05 12:07:36;;;;;;;22.47;5.47;;;10.60;99.90;;;;;;5036244;28;20362;-85
2023/01/05 12:10:31;;;;;;;21.50;3.83;;;10.60;99.90;;;;;;5019933;28;20284;-83
2023/01/05 12:13:16;;;;;;;24.02;3.97;;;10.60;99.90;;;;;;5036790;28;20474;-89
2023/01/05 12:15:48;;;;;;;20.67;4.65;;;10.50;99.90;;;;;;5037158;28;20053;-84
2023/01/05 12:18:46;;;;;;;21.50;4.07;;;10.60;99.90;;;;;;5036414;28;20091;-88
2023/01/05 12:21:23;;;;;;;20.07;4.30;;;10.60;99.90;;;;;;5035192;28;20284;-83
2023/01/05 12:24:11;;;;;;;24.67;4.40;;;10.60;99.90;;;;;;5037171;28;20283;-86
2023/01/05 12:26:59;;;;;;;22.87;4.27;;;10.60;99.90;;;;;;5036273;28;20339;-86
2023/01/05 12:29:53;;;;;;;26.90;5.93;;;10.60;99.90;;;;;;5037016;28;20284;-85
2023/01/05 12:32:51;;;;;;;27.30;5.50;;;10.60;99.90;;;;;;5035547;28;20292;-88
2023/01/05 12:36:00;;;;;;;22.80;5.00;;;10.60;99.90;;;;;;5036139;28;20759;-88
2023/01/05 12:38:54;;;;;;;30.33;4.80;;;10.60;99.90;;;;;;5015481;28;20276;-88
2023/01/05 12:41:41;;;;;;;21.70;4.40;;;10.50;99.90;;;;;;5035009;28;20795;-88
2023/01/05 12:44:19;;;;;;;23.87;4.83;;;10.50;99.90;;;;;;5036069;28;20334;-86
2023/01/05 12:46:56;;;;;;;27.37;4.73;;;10.50;99.90;;;;;;5018694;28;20300;-87
2023/01/05 12:49:57;;;;;;;27.30;4.50;;;10.50;99.90;;;;;;5036701;28;20291;-85
2023/01/05 12:52:31;;;;;;;32.17;7.37;;;10.50;99.90;;;;;;5037550;28;20295;-86
2023/01/05 12:55:16;;;;;;;29.27;6.75;;;10.50;99.90;;;;;;5036717;28;20290;-88
2023/01/05 12:57:56;;;;;;;23.20;8.00;;;10.50;99.90;;;;;;5036092;28;20052;-89
2023/01/05 13:00:24;;;;;;;27.40;5.40;;;10.50;99.90;;;;;;5036438;28;20277;-89
2023/01/05 13:02:55;;;;;;;27.87;5.53;;;10.50;99.90;;;;;;5034389;28;20314;-88
2023/01/05 13:05:30;;;;;;;21.17;4.93;;;10.50;99.90;;;;;;5040290;28;20421;-87
2023/01/05 13:08:30;;;;;;;27.08;5.45;;;10.50;99.90;;;;;;5057854;28;20298;-87
2023/01/05 13:11:14;;;;;;;27.23;4.97;;;10.50;99.90;;;;;;5057421;28;20553;-85
2023/01/05 13:13:50;;;;;;;22.23;4.50;;;10.50;99.90;;;;;;5076130;28;20607;-84
2023/01/05 13:16:19;;;;;;;27.20;5.70;;;10.50;99.90;;;;;;5076100;28;20286;-87
2023/01/05 13:19:24;;;;;;;25.17;4.83;;;10.50;99.90;;;;;;5075985;28;20315;-89
2023/01/05 13:21:52;;;;;;;29.37;5.33;;;10.50;99.90;;;;;;5060860;28;20634;-87
2023/01/05 13:24:38;;;;;;;25.77;5.77;;;10.50;99.90;;;;;;5075215;28;20310;-84
2023/01/05 13:27:04;;;;;;;27.63;7.83;;;10.50;99.90;;;;;;5057034;28;20303;-87
2023/01/05 13:29:37;;;;;;;28.47;6.10;;;10.50;99.90;;;;;;5075475;28;20360;-88
2023/01/05 13:32:27;;;;;;;53.53;26.70;;;10.50;99.90;;;;;;5075001;28;20091;-85
2023/01/05 13:35:21;;;;;;;52.27;20.17;;;10.60;99.90;;;;;;5058221;28;20294;-89
2023/01/05 13:38:07;;;;;;;45.27;22.97;;;10.60;99.90;;;;;;5075447;28;20325;-86
2023/01/05 13:40:47;;;;;;;28.50;6.03;;;10.60;99.90;;;;;;5075076;28;20751;-87
2023/01/05 13:43:25;;;;;;;24.00;5.70;;;10.60;99.90;;;;;;5075361;28;20283;-87